Aérodrome :
LOGIN :

S'inscrire | Disclaimer

   EN    FR    IT 

 










Légende :    VFR   VFR Marginal   IFR   IFR Intensif   IFR Très Intensif
Visi : 
Plafond : 
>= 8 km
>= 3000ft
5 à 8 km
1000 à 3000 ft
1500m à 5 km
500 à 1000 ft
800 à 1500m
200 à 500 ft
< 800m
< 200 ft
Symboles :   Orages  Brouillard  Fortes neiges  Fortes précipitations  Vent > 20 kt
SIGMETs :   Divers  Orages  Givrage  Turbulence  Onde Orograph.  Cendres Volcan.







- Altitude de l'aérodrome : 1249 ft


ETSN - Neuburg AB

DERNIER METAR :
  • 220520Z 25015KT 9999 FEW018 BKN090 09/07 Q1013 BLU

METARs EXPIRÉS :
  • 220420Z 24013G23KT 9999 FEW030 BKN085 09/07 Q1013 BLU
  • 220320Z 24011KT 9999 SCT030 BKN090 09/07 Q1014 BLU

TAF TAF ETSN
Valide du 22 à 06h jusqu'au 22 à 15h UTC


220520Z 2206/2215 25012KT 9999 NSW SCT025 BKN040
TEMPO 2206/2212 26015G25KT 5000 -DZRA SCT012 BKN020
TEMPO 2212/2215 26015G30KT 4000 RADZ BKN012 BKN020 BY ETGL
Pas de NOTAMs connus pour ce terrain.



MET'MAP, la Météo Aéronautique d'un coup d'oeil ! - Copyright ORBIFLY Décembre 2007 - Disclaimer

ORBIFLY MET'MAP TEAM :

Programmation & Développement : Alexandra Zaïnal
Conception & Développement : Baudouin d'Aumeries
Co-Programmation & Développement : Marc-Olivier Méhu
Soutien technique & logistique : Manuel Goepfert

Contact : metmap@orbifly.com




SOURCES & CREDITS :

   NOAA